Time;durP1;ratioP1;P1;durP2;ratioP2;P2;SDS_P1;SDS_P2;PMS_P1;PMS_P2;Temp;Humidity;BMP_temperature;BMP_pressure;BME280_temperature;BME280_humidity;BME280_pressure;Samples;Min_cycle;Max_cycle;Signal;HPM_P1;HPM_P2
2023/08/25 00:02:15;;;;;;;;;;;24.40;95.90;;;24.65;58.95;98313.88;4975232;28;123051;-79
2023/08/25 00:07:49;;;;;;;;;;;24.40;96.10;;;24.67;58.93;98307.81;4977594;28;119239;-79
2023/08/25 00:10:32;;;;;;;;;;;24.40;96.00;;;24.71;58.81;98319.06;4988383;28;118709;-79
2023/08/25 00:13:07;;;;;;;;;;;24.40;96.10;;;24.72;58.78;98323.50;4969735;28;124860;-78
2023/08/25 00:15:44;;;;;;;;;;;24.40;96.10;;;24.72;58.72;98323.50;4965225;28;123080;-79
2023/08/25 00:18:32;;;;;;;;;;;24.40;96.10;;;24.71;58.82;98321.91;4987941;28;119833;-79
2023/08/25 00:21:19;;;;;;;;;;;26.00;96.70;;;24.72;58.63;98337.63;4990972;28;119146;-79
2023/08/25 00:23:45;;;;;;;;;;;24.40;96.10;;;24.70;58.34;98332.41;4974441;28;124513;-79
2023/08/25 00:26:20;;;;;;;;;;;24.40;96.20;;;24.69;58.54;98328.78;4960609;28;123415;-79
2023/08/25 00:28:56;;;;;;;;;;;24.30;96.20;;;24.67;58.85;98325.56;4995413;28;118619;-79
2023/08/25 00:31:41;;;;;;;;;;;24.40;96.10;;;24.65;58.75;98327.19;4972691;28;118863;-79
2023/08/25 00:34:08;;;;;;;;;;;24.40;96.10;;;24.65;58.50;98311.06;4978769;28;124028;-79
2023/08/25 00:36:34;;;;;;;;;;;24.40;96.10;;;24.67;58.20;98310.63;4985247;28;124202;-79
2023/08/25 00:42:31;;;;;;;;;;;24.40;96.00;;;24.72;58.28;98298.88;4983027;28;120431;-78
2023/08/25 00:44:58;;;;;;;;;;;24.40;95.90;;;24.76;58.12;98298.84;4976223;28;124172;-79
2023/08/25 00:47:27;;;;;;;;;;;24.40;95.90;;;24.78;57.75;98290.75;4996004;28;124678;-78
2023/08/25 00:50:38;;;;;;;;;;;24.50;95.80;;;24.80;57.67;98288.31;5002907;28;119975;-79
2023/08/25 00:59:11;;;;;;;;;;;24.50;95.50;;;24.80;57.42;98283.47;4960935;28;122711;-79
2023/08/25 01:01:45;;;;;;;;;;;24.50;95.50;;;24.82;57.47;98285.84;4976980;28;119262;-79
2023/08/25 01:07:34;;;;;;;;;;;24.50;95.40;;;24.81;57.11;98295.56;4980413;28;124076;-79
2023/08/25 01:13:56;;;;;;;;;;;26.40;96.00;;;24.80;57.38;98283.47;4980852;28;120176;-78
2023/08/25 01:16:46;;;;;;;;;;;24.50;95.30;;;24.81;57.22;98285.06;4978880;28;118253;-78
2023/08/25 01:20:14;;;;;;;;;;;24.50;95.30;;;24.80;56.95;98286.28;4968538;28;123195;-78
2023/08/25 01:23:21;;;;;;;;;;;24.50;95.30;;;24.84;57.32;98283.41;4989404;28;123528;-79
2023/08/25 01:25:57;;;;;;;;;;;24.50;95.30;;;24.86;57.19;98280.97;4987207;28;119635;-78
2023/08/25 01:28:38;;;;;;;;;;;24.50;95.20;;;24.87;57.06;98279.72;5013469;28;119370;-79
2023/08/25 01:31:06;;;;;;;;;;;24.60;95.50;;;24.90;57.09;98276.06;4981833;28;124220;-79
2023/08/25 01:33:33;;;;;;;;;;;24.50;95.20;;;24.91;56.68;98286.16;4954332;28;123074;-80
2023/08/25 01:42:43;;;;;;;;;;;24.60;95.10;;;24.87;56.43;98282.56;4979383;28;123267;-79
2023/08/25 01:45:14;;;;;;;;;;;24.60;95.00;;;24.86;56.81;98286.63;4981335;28;124070;-80
2023/08/25 01:47:47;;;;;;;;;;;24.50;95.00;;;24.84;56.55;98292.69;4985416;28;119661;-80
2023/08/25 01:50:23;;;;;;;;;;;24.50;94.90;;;24.81;56.47;98293.53;4973218;28;118826;-80
2023/08/25 01:53:02;;;;;;;;;;;24.50;94.90;;;24.80;56.58;98279.84;4984340;28;124876;-79
2023/08/25 01:55:43;;;;;;;;;;;24.50;94.80;;;24.82;56.18;98280.19;4968409;28;124104;-79
2023/08/25 02:01:43;;;;;;;;;;;24.50;94.80;;;24.81;56.35;98281.44;4980338;28;118882;-79
2023/08/25 02:04:15;;;;;;;;;;;24.50;94.70;;;24.84;56.16;98272.09;4978997;28;124452;-79
2023/08/25 02:06:46;;;;;;;;;;;24.50;94.70;;;24.87;56.20;98271.25;4983181;28;123945;-80
2023/08/25 02:09:24;;;;;;;;;;;24.60;94.70;;;24.90;56.13;98276.06;4981548;28;119686;-80
2023/08/25 02:12:11;;;;;;;;;;;24.50;94.60;;;24.92;56.17;98267.97;4968611;28;119420;-79
2023/08/25 02:14:53;;;;;;;;;;;24.60;94.60;;;24.91;56.25;98266.38;4972349;28;124224;-79
2023/08/25 02:17:28;;;;;;;;;;;24.60;94.60;;;24.93;56.10;98258.25;4970117;28;123905;-79
2023/08/25 02:20:15;;;;;;;;;;;24.60;94.60;;;24.91;56.06;98255.88;4979515;28;119368;-79
2023/08/25 02:23:07;;;;;;;;;;;24.60;94.60;;;24.93;55.84;98258.25;4978192;28;118796;-79
2023/08/25 02:26:04;;;;;;;;;;;24.60;94.60;;;24.94;56.02;98251.41;4971392;28;124307;-79
2023/08/25 02:29:12;;;;;;;;;;;24.60;94.50;;;24.94;55.83;98254.22;4981927;28;124109;-79
2023/08/25 02:31:41;;;;;;;;;;;24.60;94.50;;;24.97;55.82;98253.38;4962279;28;119482;-79
2023/08/25 02:34:16;;;;;;;;;;;24.60;94.60;;;24.97;55.85;98241.28;4986643;28;119680;-79
2023/08/25 02:36:53;;;;;;;;;;;24.60;94.60;;;24.97;56.06;98247.72;4965456;28;123849;-79
2023/08/25 02:39:20;;;;;;;;;;;24.70;94.60;;;24.97;55.79;98236.41;4971852;28;123970;-79
2023/08/25 02:41:52;;;;;;;;;;;24.70;94.60;;;24.98;55.84;98238.00;4946190;28;117744;-79
2023/08/25 02:44:18;;;;;;;;;;;24.60;94.50;;;24.99;56.01;98239.63;4953006;28;119312;-79
2023/08/25 02:47:06;;;;;;;;;;;24.70;94.50;;;24.98;55.96;98235.19;4946716;28;123652;-79
2023/08/25 02:49:51;;;;;;;;;;;24.70;94.50;;;24.99;55.42;98239.63;4958098;28;123905;-79
2023/08/25 02:52:17;;;;;;;;;;;24.70;94.50;;;24.99;55.69;98236.81;4948672;28;119443;-79
2023/08/25 02:54:53;;;;;;;;;;;24.70;94.50;;;25.02;55.90;98235.16;4955469;28;118752;-79
2023/08/25 03:00:20;;;;;;;;;;;24.70;94.50;;;25.02;55.69;98224.66;4946793;28;124631;-79
2023/08/25 03:02:52;;;;;;;;;;;24.70;94.50;;;25.02;55.88;98221.81;4948565;28;119433;-79
2023/08/25 03:06:09;;;;;;;;;;;24.70;94.40;;;25.01;55.92;98210.91;4949420;28;117996;-79
2023/08/25 03:08:41;;;;;;;;;;;24.60;94.40;;;24.98;55.64;98209.75;4974379;28;123745;-79
2023/08/25 03:11:13;;;;;;;;;;;24.70;94.40;;;24.98;55.77;98215.41;4941619;28;124157;-79
2023/08/25 03:13:45;;;;;;;;;;;24.70;94.40;;;24.96;55.80;98215.03;4947990;28;118984;-79
2023/08/25 03:16:20;;;;;;;;;;;24.70;94.50;;;24.94;55.81;98217.47;4936833;28;117677;-79
2023/08/25 03:22:14;;;;;;;;;;;24.60;94.50;;;24.84;56.29;98209.94;4945515;28;124585;-79
2023/08/25 03:25:30;;;;;;;;;;;24.60;94.50;;;24.81;56.08;98205.13;4925075;28;120294;-79
2023/08/25 03:27:57;;;;;;;;;;;24.50;94.50;;;24.78;56.44;98194.69;4944406;28;118434;-79
2023/08/25 03:34:09;;;;;;;;;;;24.50;94.60;;;24.72;56.58;98190.69;4945641;28;124704;-79
2023/08/25 03:36:37;;;;;;;;;;;24.50;94.60;;;24.69;56.48;98184.69;4934250;28;119487;-79
2023/08/25 03:39:18;;;;;;;;;;;24.40;94.60;;;24.65;56.65;98192.41;4946397;28;117633;-79
2023/08/25 03:45:21;;;;;;;;;;;24.30;94.60;;;24.56;56.70;98185.66;4889355;28;124688;-80
2023/08/25 03:47:47;;;;;;;;;;;24.30;94.70;;;24.55;56.58;98169.94;4886567;28;119254;-79
2023/08/25 03:50:32;;;;;;;;;;;24.30;94.70;;;24.56;56.87;98182.84;4889001;28;118482;-79
2023/08/25 03:56:17;;;;;;;;;;;24.30;94.80;;;24.51;56.97;98163.53;4884273;28;123711;-79
2023/08/25 03:59:35;;;;;;;;;;;24.30;94.80;;;24.49;56.97;98158.31;4843201;29;121694;-79
2023/08/25 04:02:04;;;;;;;;;;;24.30;94.80;;;24.50;56.92;98157.06;4858479;28;118124;-79
2023/08/25 04:04:51;;;;;;;;;;;24.30;94.90;;;24.50;56.90;98159.09;4920134;28;124202;-79
2023/08/25 04:07:18;;;;;;;;;;;24.30;94.90;;;24.50;56.86;98157.06;4907880;28;123733;-79
2023/08/25 04:09:45;;;;;;;;;;;24.20;94.90;;;24.49;57.20;98151.84;4895333;28;118986;-79
2023/08/25 04:12:17;;;;;;;;;;;24.20;94.90;;;24.46;56.71;98143.00;4888159;28;118763;-79
2023/08/25 04:15:26;;;;;;;;;;;24.20;94.90;;;24.44;57.00;98136.16;4887742;28;124583;-79
2023/08/25 04:21:37;;;;;;;;;;;24.20;95.00;;;24.41;57.22;98136.97;4875255;28;120668;-79
2023/08/25 04:24:50;;;;;;;;;;;24.20;95.00;;;24.40;57.01;98127.72;4934619;28;119459;-79
2023/08/25 04:28:05;;;;;;;;;;;24.20;95.00;;;24.35;56.87;98133.81;4941988;28;124330;-79
2023/08/25 04:31:02;;;;;;;;;;;24.10;95.00;;;24.35;57.14;98131.00;4937646;28;123635;-79
2023/08/25 04:33:57;;;;;;;;;;;24.10;95.00;;;24.35;57.27;98133.81;4927474;28;119504;-80
2023/08/25 04:36:26;;;;;;;;;;;24.10;95.10;;;24.36;57.07;98140.28;4954119;28;118069;-79
2023/08/25 04:38:54;;;;;;;;;;;24.10;95.10;;;24.38;56.96;98132.19;4918948;28;124032;-79
2023/08/25 04:41:40;;;;;;;;;;;24.10;95.00;;;24.36;57.06;98129.78;4972163;28;124539;-79
2023/08/25 04:44:56;;;;;;;;;;;24.10;95.00;;;24.36;56.85;98123.31;4966314;28;119499;-79
2023/08/25 04:50:56;;;;;;;;;;;24.00;94.90;;;24.32;56.83;98119.75;4973712;28;123764;-80
2023/08/25 04:54:17;;;;;;;;;;;24.10;95.30;;;24.31;56.76;98115.31;4966646;28;124905;-79
2023/08/25 04:57:28;;;;;;;;;;;24.00;94.90;;;24.30;56.94;98113.72;4945391;28;120216;-79
2023/08/25 04:59:55;;;;;;;;;;;24.00;94.90;;;24.31;56.69;98112.50;4941016;28;119121;-79
2023/08/25 05:02:21;;;;;;;;;;;24.00;94.90;;;24.32;56.79;98116.94;4954119;28;124748;-78
2023/08/25 05:05:28;;;;;;;;;;;24.00;94.90;;;24.31;56.93;98118.94;4964382;28;124292;-78
2023/08/25 05:08:21;;;;;;;;;;;24.00;94.90;;;24.33;56.79;98101.59;4995972;28;119407;-78
2023/08/25 05:11:09;;;;;;;;;;;24.00;94.90;;;24.36;56.77;98100.75;5006946;28;118446;-78
2023/08/25 05:13:50;;;;;;;;;;;24.00;94.80;;;24.37;56.37;98091.84;4978973;28;124107;-78
2023/08/25 05:16:22;;;;;;;;;;;24.10;94.90;;;24.41;56.58;98080.50;4998187;28;124610;-79
2023/08/25 05:19:25;;;;;;;;;;;24.00;94.80;;;24.42;56.44;98082.09;4990569;28;120141;-79
2023/08/25 05:25:14;;;;;;;;;;;24.00;94.80;;;24.43;56.42;98089.38;4930446;28;125207;-79
2023/08/25 05:27:40;;;;;;;;;;;24.10;94.80;;;24.46;56.47;98095.00;4908835;28;124185;-79
2023/08/25 05:30:08;;;;;;;;;;;24.10;94.80;;;24.52;56.52;98094.53;4894569;28;119256;-79
2023/08/25 05:32:59;;;;;;;;;;;24.10;94.80;;;24.53;56.19;98094.09;4894202;28;118457;-79
2023/08/25 05:38:34;;;;;;;;;;;24.20;94.80;;;24.62;56.00;98105.69;4944724;28;123901;-79
2023/08/25 05:44:11;;;;;;;;;;;23.20;94.20;;;24.74;56.00;98104.28;4929054;28;118881;-79
2023/08/25 05:46:47;;;;;;;;;;;24.30;94.70;;;24.80;55.52;98124.44;4922694;28;124269;-79
2023/08/25 05:49:19;;;;;;;;;;;24.40;94.60;;;24.84;55.44;98131.59;4929494;28;122977;-79
2023/08/25 05:51:49;;;;;;;;;;;24.40;94.60;;;24.89;55.47;98150.13;4923690;28;118538;-79
2023/08/25 05:54:49;;;;;;;;;;;24.50;94.50;;;24.89;55.40;98162.22;4900719;28;118703;-79
2023/08/25 05:57:37;;;;;;;;;;;24.50;94.40;;;24.88;55.15;98171.13;4922524;28;123206;-79
2023/08/25 06:00:12;;;;;;;;;;;24.50;94.30;;;24.91;55.58;98190.06;4926144;28;124411;-79
2023/08/25 06:02:58;;;;;;;;;;;24.60;94.30;;;24.94;55.15;98191.25;4960090;28;118493;-78
2023/08/25 06:05:34;;;;;;;;;;;24.60;94.30;;;24.97;55.54;98196.84;4974377;28;118439;-79
2023/08/25 06:08:06;;;;;;;;;;;24.60;94.30;;;25.01;55.52;98202.44;4998081;28;123538;-79
2023/08/25 06:10:40;;;;;;;;;;;24.70;94.30;;;25.04;55.51;98225.03;4977954;28;124517;-78
2023/08/25 06:13:56;;;;;;;;;;;24.70;94.30;;;25.04;55.57;98301.34;4971785;28;119644;-78
2023/08/25 06:17:06;;;;;;;;;;;;;;;;;;;;;
2023/08/25 06:19:37;;;;;;;;;;;24.70;94.50;;;24.88;56.72;98400.06;4970339;28;125544;-78
2023/08/25 06:22:11;;;;;;;;;;;24.50;94.90;;;24.80;57.07;98435.25;4983980;28;123547;-78
2023/08/25 06:28:48;;;;;;;;;;;24.40;95.30;;;24.57;57.66;98428.16;4972168;28;119503;-79
2023/08/25 06:31:24;;;;;;;;;;;24.30;95.40;;;24.52;57.68;98422.16;4969337;28;124534;-78
2023/08/25 06:33:56;;;;;;;;;;;24.30;95.40;;;24.49;57.69;98404.00;4982678;28;124161;-79
2023/08/25 06:36:35;;;;;;;;;;;24.20;95.40;;;24.46;57.56;98422.59;4981844;28;120107;-78
2023/08/25 06:42:33;;;;;;;;;;;24.20;95.30;;;24.42;57.24;98410.50;4976892;28;125103;-78
2023/08/25 06:45:31;;;;;;;;;;;24.10;95.30;;;24.41;57.50;98431.47;4968879;28;123648;-79
2023/08/25 06:48:19;;;;;;;;;;;24.20;95.40;;;24.43;57.65;98416.94;4946339;28;118678;-78
2023/08/25 06:51:00;;;;;;;;;;;24.20;95.50;;;24.42;57.72;98404.03;4927636;28;118818;-79
2023/08/25 06:56:50;;;;;;;;;;;24.00;95.70;;;24.32;58.46;98419.06;4973874;28;122689;-78
2023/08/25 07:05:46;;;;;;;;;;;24.00;96.70;;;24.14;60.40;98376.81;4964180;28;123488;-79
2023/08/25 07:08:18;;;;;;;;;;;23.90;96.80;;;24.11;60.43;98367.16;4964719;28;123994;-79
2023/08/25 07:11:26;;;;;;;;;;;23.90;97.00;;;24.05;60.67;98379.31;4955386;28;120124;-79
2023/08/25 07:13:52;;;;;;;;;;;23.90;97.00;;;24.02;61.06;98378.94;4923563;28;119761;-79
2023/08/25 07:16:40;;;;;;;;;;;23.90;97.20;;;23.96;61.06;98372.09;4921449;28;124144;-79
2023/08/25 07:19:13;;;;;;;;;;;23.80;97.20;;;23.93;61.28;98384.22;4895156;28;123644;-79
2023/08/25 07:21:42;;;;;;;;;;;23.80;97.30;;;23.89;61.38;98402.41;4910743;28;119458;-79
2023/08/25 07:24:17;;;;;;;;;;;23.70;97.30;;;23.88;61.92;98434.63;4924775;28;118828;-79
2023/08/25 07:26:47;;;;;;;;;;;23.80;97.60;;;23.85;62.14;98477.78;4917275;28;124290;-79
2023/08/25 07:29:13;;;;;;;;;;;23.70;97.70;;;23.81;62.16;98480.63;4923161;28;124023;-78
2023/08/25 07:34:51;;;;;;;;;;;23.60;98.00;;;23.75;62.59;98473.78;4900616;28;119281;-79
2023/08/25 07:37:32;;;;;;;;;;;23.60;98.00;;;23.78;62.55;98490.72;4914808;28;124044;-79
2023/08/25 07:40:05;;;;;;;;;;;23.60;98.10;;;23.84;62.57;98510.84;4937695;28;122854;-79
2023/08/25 07:42:41;;;;;;;;;;;23.60;98.20;;;23.88;62.52;98522.09;4926771;28;119609;-79
2023/08/25 07:45:13;;;;;;;;;;;23.60;98.30;;;23.90;62.88;98523.31;4925445;28;118657;-79
2023/08/25 07:50:50;;;;;;;;;;;23.60;98.60;;;23.88;62.85;98545.47;4965610;28;123818;-79
2023/08/25 07:53:25;;;;;;;;;;;23.60;98.70;;;23.85;63.15;98582.19;4967989;28;119884;-79
2023/08/25 07:56:32;;;;;;;;;;;23.60;98.80;;;23.78;63.45;98566.88;4974556;28;118697;-79
2023/08/25 07:59:07;;;;;;;;;;;23.60;98.90;;;23.75;63.84;98556.41;4965664;28;124438;-79
2023/08/25 08:01:52;;;;;;;;;;;23.60;99.00;;;23.75;63.89;98542.31;4969889;28;123246;-79
2023/08/25 08:04:30;;;;;;;;;;;23.50;99.10;;;23.75;63.69;98536.66;4978089;28;119925;-79
2023/08/25 08:07:02;;;;;;;;;;;23.60;99.20;;;23.76;63.74;98546.72;4964643;28;119251;-79
2023/08/25 08:09:38;;;;;;;;;;;23.50;99.20;;;23.78;63.82;98563.25;4988528;28;123223;-79
2023/08/25 08:12:16;;;;;;;;;;;23.50;99.20;;;23.77;63.90;98551.16;4989077;28;124511;-79
2023/08/25 08:14:42;;;;;;;;;;;23.50;99.20;;;23.75;63.97;98536.66;4991108;28;119492;-79
2023/08/25 08:17:19;;;;;;;;;;;23.50;99.30;;;23.75;63.92;98525.38;4984736;28;118444;-79
2023/08/25 08:19:51;;;;;;;;;;;23.50;99.30;;;23.76;64.00;98543.91;4973354;28;124216;-79
2023/08/25 08:22:19;;;;;;;;;;;23.50;99.40;;;23.78;64.18;98552.78;4971724;28;123894;-79
2023/08/25 08:24:57;;;;;;;;;;;23.50;99.40;;;23.76;63.90;98555.19;4984825;28;119537;-79
2023/08/25 08:27:40;;;;;;;;;;;23.50;99.50;;;23.75;64.45;98547.13;4974305;28;118647;-79
2023/08/25 08:30:40;;;;;;;;;;;23.50;99.70;;;23.70;64.42;98559.63;4991221;28;123306;-79
2023/08/25 08:33:48;;;;;;;;;;;23.50;99.70;;;23.68;64.38;98536.66;4980857;28;124083;-79
2023/08/25 08:36:17;;;;;;;;;;;23.50;99.80;;;23.66;64.42;98508.03;4968777;28;119397;-80
2023/08/25 08:38:43;;;;;;;;;;;23.40;99.90;;;23.66;64.66;98479.81;4983216;28;119289;-79
2023/08/25 08:41:53;;;;;;;;;;;23.40;99.90;;;23.64;64.54;98425.84;5011299;28;124324;-79
2023/08/25 08:44:52;;;;;;;;;;;23.40;99.90;;;23.66;64.33;98428.25;4975968;28;124160;-78
2023/08/25 08:47:54;;;;;;;;;;;23.40;99.90;;;23.66;64.36;98416.97;4982155;28;118981;-79
2023/08/25 08:50:27;;;;;;;;;;;23.40;99.80;;;23.66;63.90;98371.84;4985599;28;117986;-79
2023/08/25 08:53:04;;;;;;;;;;;23.40;99.70;;;23.67;63.96;98343.25;5003023;28;123926;-79
2023/08/25 08:55:53;;;;;;;;;;;23.40;99.70;;;23.68;64.10;98344.84;5018274;27;123889;-79
2023/08/25 08:58:32;;;;;;;;;;;23.40;99.70;;;23.72;63.92;98328.75;5001155;28;121012;-79
2023/08/25 09:01:03;;;;;;;;;;;23.40;99.70;;;23.77;64.05;98336.75;5009090;27;119601;-79
2023/08/25 09:03:50;;;;;;;;;;;23.50;99.80;;;23.82;63.65;98321.41;5026784;27;124225;-79
2023/08/25 09:07:15;;;;;;;;;;;23.50;99.80;;;23.87;63.91;98317.34;5014062;28;123428;-80
2023/08/25 09:09:56;;;;;;;;;;;23.50;99.80;;;23.87;63.31;98352.00;4997486;28;119443;-79
2023/08/25 09:12:31;;;;;;;;;;;23.50;99.70;;;23.86;63.02;98350.41;4972409;28;118080;-79
2023/08/25 09:15:03;;;;;;;;;;;23.50;99.50;;;23.85;63.13;98351.59;5008886;28;124000;-79
2023/08/25 09:17:49;;;;;;;;;;;23.50;99.40;;;23.88;62.97;98316.13;4997105;28;124459;-79
2023/08/25 09:20:16;;;;;;;;;;;23.50;99.40;;;23.91;63.17;98320.94;5005518;28;120066;-80
2023/08/25 09:22:58;;;;;;;;;;;23.50;99.30;;;23.89;62.98;98310.06;5001922;28;117626;-79
2023/08/25 09:32:06;;;;;;;;;;;23.60;99.40;;;23.84;62.74;98284.31;4954787;28;119950;-78
2023/08/25 09:37:41;;;;;;;;;;;23.60;99.30;;;23.90;62.44;98248.78;4922363;28;123739;-78
2023/08/25 09:40:22;;;;;;;;;;;23.60;99.20;;;23.98;62.77;98261.63;4869824;28;124088;-79
2023/08/25 09:52:44;;;;;;;;;;;23.70;99.50;;;24.16;62.88;98267.94;4857760;28;124540;-79
2023/08/25 09:55:12;;;;;;;;;;;23.70;99.40;;;24.19;62.11;98264.25;4854054;28;120758;-79
2023/08/25 09:58:12;;;;;;;;;;;23.70;99.20;;;24.19;62.03;98255.78;4869183;28;119924;-79
2023/08/25 10:01:17;;;;;;;;;;;23.60;99.20;;;24.21;62.33;98275.16;4871665;28;124260;-79
2023/08/25 10:03:43;;;;;;;;;;;23.70;99.30;;;24.24;62.49;98280.75;4868634;28;124634;-79
2023/08/25 10:06:31;;;;;;;;;;;23.70;99.50;;;24.22;63.32;98277.53;4849213;28;118657;-78
2023/08/25 10:09:19;;;;;;;;;;;23.70;99.80;;;24.21;63.20;98280.81;4821940;29;118485;-79
2023/08/25 10:11:49;;;;;;;;;;;23.70;99.90;;;24.24;63.27;98292.03;4849786;28;124288;-79
2023/08/25 10:18:20;;;;;;;;;;;23.80;99.90;;;24.29;63.09;98287.16;4940651;28;120008;-79
2023/08/25 10:20:58;;;;;;;;;;;23.90;99.90;;;24.33;63.10;98282.28;4992772;28;119832;-79
2023/08/25 10:23:33;;;;;;;;;;;23.90;99.90;;;24.39;63.06;98281.41;4985687;28;123988;-79
2023/08/25 10:26:35;;;;;;;;;;;23.90;99.80;;;24.43;62.52;98267.28;4983805;28;123886;-79
2023/08/25 10:32:24;;;;;;;;;;;24.00;99.60;;;24.52;62.25;98280.94;4988062;28;118796;-79
2023/08/25 10:35:03;;;;;;;;;;;24.10;99.50;;;24.57;62.10;98294.59;4927396;28;125281;-79
2023/08/25 10:37:37;;;;;;;;;;;24.10;99.40;;;24.57;62.05;98295.41;4920565;28;124150;-79
2023/08/25 10:40:55;;;;;;;;;;;;;;;;;;;;;
2023/08/25 10:43:37;;;;;;;;;;;24.10;99.30;;;24.52;61.90;98298.66;4932767;28;119254;-79
2023/08/25 10:46:25;;;;;;;;;;;24.10;99.30;;;24.52;61.92;98303.53;4916812;28;123234;-79
2023/08/25 10:49:21;;;;;;;;;;;24.10;99.50;;;24.57;61.62;98303.06;4925253;28;123910;-79
2023/08/25 10:52:33;;;;;;;;;;;24.20;99.20;;;24.59;61.79;98324.03;4925446;28;120664;-79
2023/08/25 10:55:55;;;;;;;;;;;24.20;99.10;;;24.61;61.57;98313.13;4906739;28;120081;-80
2023/08/25 10:58:59;;;;;;;;;;;24.20;99.20;;;24.61;61.40;98326.41;4908114;28;125177;-79
2023/08/25 11:01:54;;;;;;;;;;;24.20;99.00;;;24.61;61.13;98310.31;4907550;28;123622;-79
2023/08/25 11:04:35;;;;;;;;;;;24.20;98.80;;;24.63;61.16;98307.84;4882791;28;119974;-79
2023/08/25 11:13:37;;;;;;;;;;;24.30;98.60;;;24.80;60.70;98288.31;4912155;28;123400;-79
2023/08/25 11:16:11;;;;;;;;;;;24.20;98.40;;;24.84;60.45;98267.25;4911674;28;118773;-79
2023/08/25 11:18:45;;;;;;;;;;;24.40;98.40;;;24.90;60.01;98270.41;4922612;28;118524;-80
2023/08/25 11:21:24;;;;;;;;;;;24.40;98.30;;;24.94;59.99;98279.66;4907840;28;122862;-80
2023/08/25 11:24:25;;;;;;;;;;;24.50;98.20;;;24.96;60.03;98257.44;4901291;28;123423;-80
2023/08/25 11:27:16;;;;;;;;;;;24.50;98.10;;;25.02;59.84;98277.56;4906422;28;119242;-80
2023/08/25 11:29:48;;;;;;;;;;;24.50;98.20;;;25.08;59.83;98282.31;4907117;28;118637;-80
2023/08/25 11:32:36;;;;;;;;;;;24.60;98.20;;;25.13;60.37;98284.66;4957847;28;123778;-80
2023/08/25 11:35:12;;;;;;;;;;;24.70;98.20;;;25.21;59.83;98276.94;4953664;28;124372;-80
2023/08/25 11:37:40;;;;;;;;;;;24.70;98.30;;;25.28;60.08;98265.53;4960118;28;119895;-80
2023/08/25 11:41:07;;;;;;;;;;;24.80;98.30;;;25.32;59.95;98262.66;4948628;28;119016;-79
2023/08/25 11:43:40;;;;;;;;;;;24.90;98.30;;;25.38;60.04;98269.41;4917467;28;124291;-80
2023/08/25 11:46:24;;;;;;;;;;;24.90;98.40;;;25.39;59.88;98268.22;4985845;28;123513;-80
2023/08/25 11:49:07;;;;;;;;;;;24.90;98.30;;;25.43;59.55;98277.44;4986401;28;120571;-80
2023/08/25 11:51:36;;;;;;;;;;;25.00;98.30;;;25.47;59.72;98257.56;4965631;28;119609;-79
2023/08/25 11:54:26;;;;;;;;;;;25.10;98.20;;;25.49;59.82;98269.28;4978353;28;124166;-79
2023/08/25 11:57:02;;;;;;;;;;;25.10;98.10;;;25.53;59.45;98261.56;4980137;28;124103;-79
2023/08/25 11:59:30;;;;;;;;;;;25.10;98.20;;;25.59;59.47;98256.22;4971816;28;119674;-79
2023/08/25 12:02:15;;;;;;;;;;;25.10;98.20;;;25.65;59.95;98240.34;4968163;28;118778;-80
2023/08/25 12:08:19;;;;;;;;;;;25.30;98.30;;;25.81;59.36;98236.88;4983599;28;124688;-79
2023/08/25 12:11:26;;;;;;;;;;;25.30;98.30;;;25.86;59.52;98203.25;4981636;28;119671;-79
2023/08/25 12:14:28;;;;;;;;;;;25.40;98.20;;;25.97;59.17;98211.56;4956959;28;111953;-80
2023/08/25 12:21:05;;;;;;;;;;;25.50;97.80;;;26.05;58.68;98200.91;4950609;28;123531;-80
2023/08/25 12:23:43;;;;;;;;;;;25.60;97.80;;;26.08;58.70;98197.22;4998213;28;119341;-79
2023/08/25 12:26:11;;;;;;;;;;;25.60;97.60;;;26.12;58.24;98186.63;5016132;28;118727;-79
2023/08/25 12:31:27;;;;;;;;;;;25.70;97.30;;;26.24;57.37;98169.00;4961853;28;124325;-80
2023/08/25 12:33:53;;;;;;;;;;;25.80;97.10;;;26.28;57.20;98157.63;5004815;28;119426;-79
2023/08/25 12:36:29;;;;;;;;;;;25.80;96.90;;;26.33;57.18;98157.91;4986485;28;118988;-80
2023/08/25 12:38:55;;;;;;;;;;;25.90;96.80;;;26.40;56.53;98132.25;4981395;28;124351;-80
2023/08/25 12:45:15;;;;;;;;;;;26.00;96.40;;;26.49;55.90;98122.38;4996556;28;120456;-79
2023/08/25 12:47:54;;;;;;;;;;;26.00;96.30;;;26.56;55.74;98117.38;4942154;28;119234;-80
2023/08/25 12:51:16;;;;;;;;;;;26.10;96.00;;;26.62;55.76;98114.84;4935869;28;124372;-80
2023/08/25 12:53:43;;;;;;;;;;;26.20;95.80;;;26.73;55.10;98115.41;4921668;28;123439;-78
2023/08/25 12:56:09;;;;;;;;;;;26.30;95.70;;;26.82;54.70;98123.31;4918250;28;119440;-79
2023/08/25 12:58:41;;;;;;;;;;;26.30;95.40;;;26.93;54.34;98137.25;4924585;28;118034;-78
2023/08/25 13:01:08;;;;;;;;;;;26.40;95.20;;;27.00;53.58;98118.06;4917570;28;123646;-78
2023/08/25 13:03:43;;;;;;;;;;;26.50;95.00;;;27.08;53.60;98113.00;4923780;28;124026;-79
2023/08/25 13:06:10;;;;;;;;;;;26.50;94.90;;;27.15;53.68;98104.34;4926683;28;119419;-79
2023/08/25 13:08:51;;;;;;;;;;;26.60;94.80;;;27.24;52.83;98115.91;4910569;28;118720;-79
2023/08/25 13:11:20;;;;;;;;;;;26.70;94.50;;;27.30;52.73;98134.00;4883425;28;123210;-79
2023/08/25 13:13:52;;;;;;;;;;;26.80;94.30;;;27.37;52.54;98146.41;4919913;28;124551;-79
2023/08/25 13:16:22;;;;;;;;;;;26.90;94.20;;;27.40;52.55;98151.97;4918732;28;119753;-79
2023/08/25 13:18:48;;;;;;;;;;;26.90;94.00;;;27.45;51.96;98147.81;4908579;28;118699;-78
2023/08/25 13:21:30;;;;;;;;;;;27.00;93.70;;;27.51;51.96;98154.56;4923901;28;124094;-79
2023/08/25 13:24:56;;;;;;;;;;;27.00;93.70;;;27.57;51.80;98160.53;4940638;28;123926;-78
2023/08/25 13:28:01;;;;;;;;;;;27.10;93.70;;;27.63;51.47;98179.41;4979155;28;120012;-79
2023/08/25 13:30:34;;;;;;;;;;;27.20;93.50;;;27.69;51.63;98180.47;4978688;28;118784;-79
2023/08/25 13:36:05;;;;;;;;;;;27.30;93.10;;;27.80;50.98;98168.88;4979061;28;124016;-79
2023/08/25 13:38:50;;;;;;;;;;;27.40;93.10;;;27.88;50.98;98170.28;4974141;28;120692;-79
2023/08/25 13:41:31;;;;;;;;;;;27.40;92.90;;;27.96;50.67;98162.38;4976245;28;118482;-79
2023/08/25 13:44:09;;;;;;;;;;;27.50;92.90;;;28.06;50.81;98169.84;4977694;28;123573;-79
2023/08/25 13:47:13;;;;;;;;;;;27.60;92.80;;;28.20;50.38;98168.66;4970700;28;122912;-79
2023/08/25 13:49:43;;;;;;;;;;;27.70;92.70;;;28.33;49.30;98171.56;4968848;28;118393;-80
2023/08/25 13:52:14;;;;;;;;;;;27.80;92.30;;;28.40;49.74;98171.38;4967074;28;119372;-79
2023/08/25 13:55:18;;;;;;;;;;;27.90;92.30;;;28.47;49.09;98168.34;4967580;28;123993;-80
2023/08/25 13:57:57;;;;;;;;;;;27.90;92.00;;;28.56;49.06;98174.19;4977130;28;123903;-80
2023/08/25 14:00:32;;;;;;;;;;;28.10;91.90;;;28.65;48.37;98175.56;4984432;28;119849;-80
2023/08/25 14:03:16;;;;;;;;;;;28.10;91.60;;;28.68;47.57;98178.31;4977298;28;118669;-79
2023/08/25 14:05:52;;;;;;;;;;;28.20;91.00;;;28.74;47.27;98184.22;4976901;28;124861;-79
2023/08/25 14:08:51;;;;;;;;;;;28.20;90.70;;;28.76;46.81;98187.44;4977350;28;124056;-79
2023/08/25 14:11:17;;;;;;;;;;;28.30;90.40;;;28.80;46.27;98200.31;4979428;28;117554;-79
2023/08/25 14:14:38;;;;;;;;;;;28.30;90.00;;;28.78;46.59;98180.03;4996966;28;118746;-79
2023/08/25 14:17:55;;;;;;;;;;;28.40;90.00;;;28.82;47.15;98191.31;4967244;28;124149;-79
2023/08/25 14:20:30;;;;;;;;;;;28.40;90.20;;;28.89;46.91;98190.31;4973738;28;124452;-79
2023/08/25 14:23:04;;;;;;;;;;;28.50;90.10;;;28.96;46.54;98188.06;4994368;28;119326;-79
2023/08/25 14:25:34;;;;;;;;;;;28.50;89.90;;;29.03;46.25;98179.28;4986094;28;118692;-79
2023/08/25 14:28:34;;;;;;;;;;;28.60;89.30;;;29.07;46.11;98179.22;4952609;28;123527;-79
2023/08/25 14:31:34;;;;;;;;;;;28.70;89.40;;;29.13;46.11;98171.72;4980094;28;123630;-79
2023/08/25 14:34:21;;;;;;;;;;;28.70;88.50;;;29.19;45.80;98171.94;4954149;28;119574;-79